Time;durP1;ratioP1;P1;durP2;ratioP2;P2;SDS_P1;SDS_P2;PMS_P1;PMS_P2;Temp;Humidity;BMP_temperature;BMP_pressure;BME280_temperature;BME280_humidity;BME280_pressure;Samples;Min_cycle;Max_cycle;Signal;HPM_P1;HPM_P2
2022/05/08 00:01:43;;;;;;;11.63;2.40;;;;;;;;;;5112086;28;20078;-43
2022/05/08 00:04:08;;;;;;;5.43;3.05;;;;;;;;;;5106918;28;20053;-42
2022/05/08 00:06:33;;;;;;;4.93;2.95;;;;;;;;;;5108612;28;20656;-44
2022/05/08 00:09:00;;;;;;;4.35;2.83;;;;;;;;;;5108348;28;20051;-41
2022/05/08 00:11:25;;;;;;;4.65;3.25;;;;;;;;;;5109884;28;20040;-41
2022/05/08 00:13:50;;;;;;;11.60;3.97;;;;;;;;;;5106461;28;20043;-41
2022/05/08 00:16:16;;;;;;;6.68;3.25;;;;;;;;;;5110843;28;20499;-41
2022/05/08 00:18:41;;;;;;;6.47;3.00;;;;;;;;;;5111953;28;20040;-43
2022/05/08 00:21:07;;;;;;;11.63;4.10;;;;;;;;;;5106569;28;20063;-43
2022/05/08 00:23:32;;;;;;;10.35;2.80;;;;;;;;;;5111559;28;20043;-42
2022/05/08 00:25:58;;;;;;;3.15;2.28;;;;;;;;;;5111554;28;20054;-41
2022/05/08 00:28:23;;;;;;;14.88;1.85;;;;;;;;;;5106625;28;20052;-43
2022/05/08 00:30:48;;;;;;;4.40;2.55;;;;;;;;;;5110108;28;20476;-42
2022/05/08 00:33:14;;;;;;;5.03;2.85;;;;;;;;;;5113122;28;20126;-45
2022/05/08 00:35:39;;;;;;;4.32;2.90;;;;;;;;;;5110127;28;20044;-42
2022/05/08 00:38:05;;;;;;;3.53;2.53;;;;;;;;;;5108730;28;20047;-42
2022/05/08 00:40:35;;;;;;;4.63;2.50;;;;;;;;;;5108290;28;20554;-46
2022/05/08 00:43:19;;;;;;;7.35;3.22;;;;;;;;;;5108163;28;20060;-40
2022/05/08 00:45:44;;;;;;;4.25;3.75;;;;;;;;;;5106977;28;20095;-45
2022/05/08 00:48:09;;;;;;;11.63;3.42;;;;;;;;;;5107997;28;20039;-41
2022/05/08 00:50:35;;;;;;;6.22;3.50;;;;;;;;;;5104243;28;20695;-40
2022/05/08 00:53:00;;;;;;;4.78;3.72;;;;;;;;;;5112418;28;20071;-41
2022/05/08 00:55:28;;;;;;;4.57;2.85;;;;;;;;;;5112714;28;20078;-41
2022/05/08 00:57:53;;;;;;;4.82;3.63;;;;;;;;;;5108152;28;20032;-42
2022/05/08 01:00:18;;;;;;;2.25;2.05;;;;;;;;;;5107481;28;20062;-43
2022/05/08 01:02:46;;;;;;;7.70;3.33;;;;;;;;;;5113979;28;20035;-41
2022/05/08 01:05:11;;;;;;;5.35;2.50;;;;;;;;;;5114048;28;20055;-42
2022/05/08 01:07:37;;;;;;;8.10;2.72;;;;;;;;;;5112991;28;20035;-42
2022/05/08 01:10:03;;;;;;;7.15;2.97;;;;;;;;;;5109262;28;20093;-46
2022/05/08 01:12:29;;;;;;;2.53;2.10;;;;;;;;;;5109979;28;20058;-47
2022/05/08 01:15:14;;;;;;;6.10;3.60;;;;;;;;;;5111572;28;20087;-40
2022/05/08 01:17:39;;;;;;;3.03;2.20;;;;;;;;;;5110961;28;20039;-41
2022/05/08 01:20:05;;;;;;;10.70;3.08;;;;;;;;;;5113503;28;20055;-43
2022/05/08 01:22:31;;;;;;;6.28;2.78;;;;;;;;;;5117278;28;20043;-41
2022/05/08 01:24:57;;;;;;;3.70;2.88;;;;;;;;;;5114530;28;20087;-44
2022/05/08 01:27:23;;;;;;;5.35;2.90;;;;;;;;;;5091145;28;20083;-41
2022/05/08 01:29:48;;;;;;;3.17;2.60;;;;;;;;;;5114074;28;20086;-41
2022/05/08 01:32:14;;;;;;;3.05;2.15;;;;;;;;;;5108075;28;20526;-43
2022/05/08 01:34:39;;;;;;;2.90;2.05;;;;;;;;;;5114864;28;20180;-42
2022/05/08 01:37:04;;;;;;;3.17;2.60;;;;;;;;;;5111269;28;20035;-43
2022/05/08 01:39:30;;;;;;;3.65;3.20;;;;;;;;;;5113364;28;20038;-42
2022/05/08 01:41:55;;;;;;;2.78;2.25;;;;;;;;;;5113342;28;20040;-41
2022/05/08 01:44:23;;;;;;;2.22;2.03;;;;;;;;;;5113684;28;20054;-41
2022/05/08 01:46:48;;;;;;;3.75;2.70;;;;;;;;;;5112368;28;20095;-40
2022/05/08 01:49:13;;;;;;;9.93;3.65;;;;;;;;;;5112283;28;20047;-42
2022/05/08 01:51:39;;;;;;;5.55;3.15;;;;;;;;;;5111316;28;20047;-42
2022/05/08 01:54:05;;;;;;;3.08;2.50;;;;;;;;;;5107251;28;20088;-42
2022/05/08 01:56:31;;;;;;;3.78;2.97;;;;;;;;;;5109421;28;20379;-43
2022/05/08 01:58:56;;;;;;;5.35;3.00;;;;;;;;;;5112187;28;20052;-45
2022/05/08 02:01:21;;;;;;;4.47;2.38;;;;;;;;;;5115550;28;20059;-41
2022/05/08 02:03:47;;;;;;;3.85;2.92;;;;;;;;;;5112869;28;20055;-42
2022/05/08 02:06:14;;;;;;;2.55;1.75;;;;;;;;;;5110247;28;20474;-41
2022/05/08 02:08:40;;;;;;;2.85;2.00;;;;;;;;;;5110747;28;20097;-41
2022/05/08 02:11:06;;;;;;;2.55;2.17;;;;;;;;;;5111527;28;20048;-41
2022/05/08 02:13:32;;;;;;;2.80;1.63;;;;;;;;;;5113597;28;20346;-42
2022/05/08 02:15:58;;;;;;;2.40;1.75;;;;;;;;;;5108833;28;20083;-42
2022/05/08 02:18:23;;;;;;;3.10;2.25;;;;;;;;;;5111398;28;20113;-46
2022/05/08 02:20:49;;;;;;;12.27;10.07;;;;;;;;;;5113194;28;20530;-41
2022/05/08 02:23:14;;;;;;;9.98;7.30;;;;;;;;;;5115644;28;20104;-42
2022/05/08 02:25:39;;;;;;;8.68;4.25;;;;;;;;;;5112296;28;20051;-41
2022/05/08 02:28:05;;;;;;;5.13;3.67;;;;;;;;;;5109790;28;20482;-43
2022/05/08 02:30:30;;;;;;;6.28;3.65;;;;;;;;;;5111973;28;20051;-43
2022/05/08 02:32:56;;;;;;;5.95;3.05;;;;;;;;;;5115654;28;20051;-41
2022/05/08 02:35:22;;;;;;;10.75;3.10;;;;;;;;;;5115238;28;20031;-41
2022/05/08 02:37:50;;;;;;;5.88;3.03;;;;;;;;;;5114645;28;20514;-45
2022/05/08 02:40:16;;;;;;;8.02;4.60;;;;;;;;;;5113891;28;20147;-40
2022/05/08 02:42:42;;;;;;;6.47;4.97;;;;;;;;;;5112312;28;20122;-46
2022/05/08 02:45:10;;;;;;;11.50;4.18;;;;;;;;;;5115228;28;20047;-41
2022/05/08 02:47:36;;;;;;;4.28;3.75;;;;;;;;;;5105495;28;20100;-45
2022/05/08 02:50:02;;;;;;;5.70;4.22;;;;;;;;;;5110964;28;20407;-41
2022/05/08 02:52:27;;;;;;;8.07;3.55;;;;;;;;;;5110732;28;20492;-45
2022/05/08 02:54:53;;;;;;;4.22;2.63;;;;;;;;;;5110383;28;20047;-47
2022/05/08 03:00:05;;;;;;;16.38;4.05;;;;;;;;;;5115107;28;20049;-47
2022/05/08 03:02:32;;;;;;;4.25;3.55;;;;;;;;;;5114584;28;20058;-42
2022/05/08 03:04:57;;;;;;;4.65;2.28;;;;;;;;;;5112877;28;20082;-45
2022/05/08 03:07:22;;;;;;;2.63;2.20;;;;;;;;;;5109470;28;20103;-44
2022/05/08 03:09:48;;;;;;;12.70;2.88;;;;;;;;;;5104596;28;20155;-44
2022/05/08 03:12:13;;;;;;;4.60;3.25;;;;;;;;;;5115342;28;20073;-47
2022/05/08 03:14:38;;;;;;;4.57;3.75;;;;;;;;;;5113618;28;20051;-47
2022/05/08 03:17:04;;;;;;;5.00;3.22;;;;;;;;;;5116463;28;20079;-44
2022/05/08 03:19:29;;;;;;;11.57;4.60;;;;;;;;;;5113820;28;20051;-42
2022/05/08 03:21:55;;;;;;;8.98;4.60;;;;;;;;;;5115065;28;20492;-47
2022/05/08 03:24:20;;;;;;;6.30;4.72;;;;;;;;;;5108173;28;20116;-42
2022/05/08 03:26:45;;;;;;;5.88;4.15;;;;;;;;;;5113013;28;20047;-42
2022/05/08 03:29:10;;;;;;;4.72;3.63;;;;;;;;;;5115572;28;20166;-41
2022/05/08 03:31:36;;;;;;;4.28;2.63;;;;;;;;;;5104887;28;20126;-41
2022/05/08 03:34:01;;;;;;;5.85;3.65;;;;;;;;;;5112026;28;20051;-45
2022/05/08 03:36:27;;;;;;;3.20;2.65;;;;;;;;;;5112309;28;20155;-44
2022/05/08 03:38:52;;;;;;;5.03;3.58;;;;;;;;;;5110069;28;20104;-48
2022/05/08 03:41:17;;;;;;;5.43;2.65;;;;;;;;;;5109752;28;20496;-45
2022/05/08 03:43:46;;;;;;;4.75;2.92;;;;;;;;;;5111177;28;20055;-42
2022/05/08 03:46:15;;;;;;;7.55;2.00;;;;;;;;;;5108709;28;20047;-43
2022/05/08 03:48:40;;;;;;;4.93;1.85;;;;;;;;;;5112255;28;20048;-42
2022/05/08 03:51:05;;;;;;;7.07;2.15;;;;;;;;;;5106183;28;20040;-42
2022/05/08 03:53:31;;;;;;;2.53;1.92;;;;;;;;;;5107567;28;20055;-42
2022/05/08 03:55:56;;;;;;;3.15;2.67;;;;;;;;;;5109410;28;20084;-42
2022/05/08 03:58:21;;;;;;;4.07;2.28;;;;;;;;;;5112205;28;20044;-45
2022/05/08 04:00:47;;;;;;;5.00;2.47;;;;;;;;;;5110324;28;20039;-42
2022/05/08 04:03:12;;;;;;;4.65;2.88;;;;;;;;;;5111727;28;20052;-44
2022/05/08 04:05:37;;;;;;;2.28;1.50;;;;;;;;;;5106915;28;20039;-44
2022/05/08 04:08:03;;;;;;;3.88;2.75;;;;;;;;;;5112098;28;20054;-41
2022/05/08 04:10:28;;;;;;;8.32;4.03;;;;;;;;;;5108726;28;20049;-43
2022/05/08 04:12:53;;;;;;;10.93;4.32;;;;;;;;;;5108654;28;20045;-44
2022/05/08 04:18:03;;;;;;;2.85;2.08;;;;;;;;;;5111422;28;20479;-45
2022/05/08 04:20:28;;;;;;;3.53;2.67;;;;;;;;;;5111296;28;20047;-44
2022/05/08 04:25:37;;;;;;;4.78;2.40;;;;;;;;;;5110297;28;20058;-43
2022/05/08 04:28:03;;;;;;;3.65;1.85;;;;;;;;;;5111339;28;20036;-41
2022/05/08 04:30:28;;;;;;;4.07;1.98;;;;;;;;;;5111066;28;20071;-46
2022/05/08 04:32:53;;;;;;;5.05;3.58;;;;;;;;;;5110226;28;20085;-43
2022/05/08 04:35:19;;;;;;;3.92;2.88;;;;;;;;;;5112846;28;20074;-46
2022/05/08 04:37:44;;;;;;;5.43;2.90;;;;;;;;;;5115847;28;20126;-44
2022/05/08 04:40:11;;;;;;;4.05;2.83;;;;;;;;;;5115050;28;20035;-41
2022/05/08 04:42:36;;;;;;;3.92;2.55;;;;;;;;;;5109480;28;20067;-41
2022/05/08 04:45:02;;;;;;;7.43;3.35;;;;;;;;;;5114364;28;20459;-43
2022/05/08 04:47:27;;;;;;;4.20;2.35;;;;;;;;;;5113242;28;20043;-40
2022/05/08 04:49:53;;;;;;;3.80;3.40;;;;;;;;;;5110539;28;20518;-44
2022/05/08 04:52:18;;;;;;;4.13;2.33;;;;;;;;;;5105271;28;20057;-41
2022/05/08 04:54:43;;;;;;;7.75;2.67;;;;;;;;;;5115803;28;20039;-46
2022/05/08 04:57:09;;;;;;;5.25;3.35;;;;;;;;;;5113891;28;20040;-43
2022/05/08 04:59:34;;;;;;;12.80;5.82;;;;;;;;;;5116295;28;20209;-43
2022/05/08 05:01:59;;;;;;;15.07;9.13;;;;;;;;;;5117712;28;20039;-46
2022/05/08 05:04:25;;;;;;;9.75;8.75;;;;;;;;;;5108291;28;20048;-46
2022/05/08 05:06:50;;;;;;;21.13;14.82;;;;;;;;;;5116148;28;20055;-46
2022/05/08 05:09:16;;;;;;;21.10;18.90;;;;;;;;;;5117167;28;20081;-42
2022/05/08 05:11:41;;;;;;;20.95;18.85;;;;;;;;;;5115627;28;20050;-46
2022/05/08 05:14:06;;;;;;;17.10;15.40;;;;;;;;;;5107348;28;20543;-44
2022/05/08 05:16:32;;;;;;;20.05;17.42;;;;;;;;;;5115107;28;20039;-41
2022/05/08 05:18:57;;;;;;;32.97;29.60;;;;;;;;;;5115035;28;20035;-49
2022/05/08 05:21:22;;;;;;;36.40;30.92;;;;;;;;;;5112841;28;20052;-45
2022/05/08 05:23:48;;;;;;;31.13;27.85;;;;;;;;;;5114304;28;20192;-43
2022/05/08 05:26:13;;;;;;;32.45;25.73;;;;;;;;;;5112259;28;20071;-43
2022/05/08 05:28:38;;;;;;;23.73;21.25;;;;;;;;;;5109366;28;20138;-43
2022/05/08 05:31:04;;;;;;;31.77;20.88;;;;;;;;;;5110300;28;20043;-40
2022/05/08 05:33:29;;;;;;;20.13;18.05;;;;;;;;;;5115153;28;20118;-43
2022/05/08 05:35:54;;;;;;;23.65;21.25;;;;;;;;;;5114485;28;20031;-47
2022/05/08 05:38:20;;;;;;;29.45;19.02;;;;;;;;;;5110803;28;20080;-45
2022/05/08 05:40:45;;;;;;;18.00;13.82;;;;;;;;;;5116949;28;20396;-45
2022/05/08 05:43:10;;;;;;;19.83;14.38;;;;;;;;;;5111949;28;20469;-45
2022/05/08 05:45:35;;;;;;;13.80;8.50;;;;;;;;;;5108908;28;20051;-46
2022/05/08 05:48:01;;;;;;;9.75;7.63;;;;;;;;;;5112756;28;20068;-44
2022/05/08 05:50:28;;;;;;;12.27;9.65;;;;;;;;;;5113077;28;20035;-44
2022/05/08 05:52:53;;;;;;;9.88;8.38;;;;;;;;;;5119432;28;20173;-44
2022/05/08 05:55:19;;;;;;;15.70;9.27;;;;;;;;;;5116589;28;20130;-46
2022/05/08 05:57:44;;;;;;;12.70;10.07;;;;;;;;;;5111711;28;20083;-43
2022/05/08 06:00:11;;;;;;;14.00;6.05;;;;;;;;;;5112568;28;20071;-44
2022/05/08 06:02:37;;;;;;;11.10;7.07;;;;;;;;;;5110237;28;20134;-47
2022/05/08 06:05:03;;;;;;;7.20;5.38;;;;;;;;;;5110776;28;20098;-48
2022/05/08 06:07:28;;;;;;;6.10;5.47;;;;;;;;;;5115062;28;20145;-47
2022/05/08 06:09:54;;;;;;;4.47;3.47;;;;;;;;;;5116311;28;20050;-45
2022/05/08 06:12:19;;;;;;;4.03;2.33;;;;;;;;;;5115186;28;20051;-45
2022/05/08 06:14:46;;;;;;;8.73;3.80;;;;;;;;;;5109624;28;20549;-40
2022/05/08 06:17:12;;;;;;;5.15;3.58;;;;;;;;;;5113773;28;20044;-49
2022/05/08 06:19:37;;;;;;;7.78;4.05;;;;;;;;;;5106549;28;20049;-44
2022/05/08 06:22:03;;;;;;;5.25;4.75;;;;;;;;;;5111228;28;20059;-46
2022/05/08 06:24:28;;;;;;;6.57;3.30;;;;;;;;;;5108795;28;20048;-42
2022/05/08 06:26:53;;;;;;;8.27;6.97;;;;;;;;;;5112976;28;20049;-41
2022/05/08 06:29:19;;;;;;;11.70;9.40;;;;;;;;;;5112170;28;20555;-45
2022/05/08 06:31:46;;;;;;;10.45;8.38;;;;;;;;;;5117969;28;20063;-42
2022/05/08 06:34:12;;;;;;;8.65;7.22;;;;;;;;;;5110034;28;20090;-42
2022/05/08 06:36:37;;;;;;;7.70;6.00;;;;;;;;;;5110463;28;20440;-42
2022/05/08 06:39:03;;;;;;;9.38;6.93;;;;;;;;;;5113410;28;20071;-41
2022/05/08 06:41:28;;;;;;;8.30;7.53;;;;;;;;;;5114484;28;20670;-43
2022/05/08 06:43:53;;;;;;;12.32;7.05;;;;;;;;;;5112200;28;20079;-44
2022/05/08 06:46:19;;;;;;;8.45;5.88;;;;;;;;;;5115045;28;20082;-41
2022/05/08 06:48:47;;;;;;;8.75;4.60;;;;;;;;;;5112513;28;20091;-41
2022/05/08 06:51:12;;;;;;;4.72;3.60;;;;;;;;;;5107433;28;20105;-41
2022/05/08 06:53:38;;;;;;;4.82;3.00;;;;;;;;;;5113832;28;20500;-44
2022/05/08 06:56:03;;;;;;;3.08;2.20;;;;;;;;;;5112089;28;20356;-42
2022/05/08 06:58:28;;;;;;;2.97;2.15;;;;;;;;;;5110260;28;20174;-43
2022/05/08 07:03:39;;;;;;;3.58;2.53;;;;;;;;;;5113552;28;20564;-44
2022/05/08 07:06:04;;;;;;;3.78;2.42;;;;;;;;;;5110383;28;20048;-46
2022/05/08 07:08:29;;;;;;;15.85;2.65;;;;;;;;;;5107703;28;20101;-42
2022/05/08 07:10:55;;;;;;;3.17;2.03;;;;;;;;;;5110709;28;20078;-42
2022/05/08 07:13:23;;;;;;;7.55;2.83;;;;;;;;;;5113687;28;20043;-43
2022/05/08 07:15:48;;;;;;;4.78;2.88;;;;;;;;;;5109286;28;20070;-47
2022/05/08 07:18:14;;;;;;;2.75;2.35;;;;;;;;;;5112517;28;20720;-48
2022/05/08 07:20:39;;;;;;;3.50;2.10;;;;;;;;;;5110839;28;20629;-45
2022/05/08 07:23:04;;;;;;;4.47;2.40;;;;;;;;;;5112791;28;20122;-49
2022/05/08 07:25:29;;;;;;;4.78;1.85;;;;;;;;;;5108702;28;20028;-47
2022/05/08 07:27:55;;;;;;;2.08;1.45;;;;;;;;;;5108125;28;20130;-46
2022/05/08 07:30:20;;;;;;;3.67;1.40;;;;;;;;;;5105585;28;20051;-42
2022/05/08 07:32:48;;;;;;;1.52;0.80;;;;;;;;;;5113230;28;20081;-47
2022/05/08 07:37:57;;;;;;;5.20;1.50;;;;;;;;;;5109716;28;20703;-47
2022/05/08 07:40:23;;;;;;;2.90;1.30;;;;;;;;;;5112214;28;20047;-44
2022/05/08 07:42:48;;;;;;;3.03;1.83;;;;;;;;;;5108555;28;20082;-48
2022/05/08 07:45:13;;;;;;;4.80;1.70;;;;;;;;;;5108003;28;20048;-48
2022/05/08 07:47:39;;;;;;;2.35;1.10;;;;;;;;;;5111688;28;20048;-45
2022/05/08 07:50:05;;;;;;;5.85;1.60;;;;;;;;;;5105023;28;20174;-45
2022/05/08 07:52:31;;;;;;;3.53;1.67;;;;;;;;;;5109837;28;21681;-48
2022/05/08 07:54:56;;;;;;;7.20;1.65;;;;;;;;;;5108683;28;20047;-53
2022/05/08 07:57:21;;;;;;;5.55;3.00;;;;;;;;;;5107311;28;20504;-56
2022/05/08 07:59:48;;;;;;;2.05;1.27;;;;;;;;;;5110891;28;20098;-55
2022/05/08 08:02:13;;;;;;;1.92;1.23;;;;;;;;;;5107171;28;20504;-54
2022/05/08 08:04:38;;;;;;;3.45;1.08;;;;;;;;;;5112900;28;20059;-51
2022/05/08 08:07:04;;;;;;;4.65;2.78;;;;;;;;;;5110141;28;20042;-53
2022/05/08 08:09:29;;;;;;;3.88;1.60;;;;;;;;;;5107703;28;20448;-55
2022/05/08 08:11:55;;;;;;;3.83;2.70;;;;;;;;;;5108894;28;20043;-53
2022/05/08 08:14:20;;;;;;;1.15;0.80;;;;;;;;;;5110501;28;20055;-50
2022/05/08 08:16:46;;;;;;;2.53;1.45;;;;;;;;;;5108098;28;20047;-52
2022/05/08 08:19:11;;;;;;;2.38;1.70;;;;;;;;;;5107292;28;20089;-56
2022/05/08 08:21:39;;;;;;;4.93;4.53;;;;;;;;;;5108306;28;20051;-56
2022/05/08 08:24:05;;;;;;;4.72;2.08;;;;;;;;;;5104635;28;20048;-57
2022/05/08 08:26:30;;;;;;;0.90;0.68;;;;;;;;;;5095932;28;20055;-57
2022/05/08 08:28:55;;;;;;;3.00;1.25;;;;;;;;;;5109615;28;20040;-60
2022/05/08 08:31:21;;;;;;;2.90;1.80;;;;;;;;;;5107975;28;20043;-55
2022/05/08 08:33:47;;;;;;;2.33;1.58;;;;;;;;;;5116751;28;20108;-53
2022/05/08 08:36:13;;;;;;;3.60;2.28;;;;;;;;;;5115833;28;20039;-56
2022/05/08 08:38:38;;;;;;;4.18;1.25;;;;;;;;;;5110679;28;20572;-54
2022/05/08 08:41:04;;;;;;;1.30;1.20;;;;;;;;;;5111309;28;20531;-55
2022/05/08 08:43:31;;;;;;;0.98;0.73;;;;;;;;;;5110887;28;20069;-55
2022/05/08 08:48:42;;;;;;;3.17;1.63;;;;;;;;;;5109209;28;20074;-55
2022/05/08 08:51:08;;;;;;;7.15;2.17;;;;;;;;;;5107009;28;20036;-56
2022/05/08 08:53:33;;;;;;;1.90;1.33;;;;;;;;;;5111589;28;20054;-56
2022/05/08 08:56:01;;;;;;;4.60;1.70;;;;;;;;;;5108942;28;20503;-56
2022/05/08 08:58:26;;;;;;;4.18;0.70;;;;;;;;;;5107602;28;20043;-56
2022/05/08 09:00:51;;;;;;;1.48;1.13;;;;;;;;;;5107119;28;20531;-56
2022/05/08 09:03:28;;;;;;;1.58;1.15;;;;;;;;;;5106150;28;20508;-57
2022/05/08 09:05:54;;;;;;;8.73;2.50;;;;;;;;;;5110632;28;20052;-56
2022/05/08 09:08:26;;;;;;;4.20;3.15;;;;;;;;;;5110002;28;20081;-57
2022/05/08 09:10:53;;;;;;;2.08;1.27;;;;;;;;;;5107952;28;20036;-56
2022/05/08 09:13:19;;;;;;;8.57;1.70;;;;;;;;;;5112069;28;20055;-58
2022/05/08 09:15:44;;;;;;;1.65;1.10;;;;;;;;;;5112688;28;20051;-58
2022/05/08 09:18:10;;;;;;;0.80;0.70;;;;;;;;;;5113340;28;20051;-57
2022/05/08 09:20:41;;;;;;;3.97;0.90;;;;;;;;;;5111716;28;20074;-58
2022/05/08 09:23:07;;;;;;;;;;;;;;;;;;5108765;28;20078;-57
2022/05/08 09:25:52;;;;;;;7.97;1.73;;;;;;;;;;5109050;28;20375;-56
2022/05/08 09:28:18;;;;;;;4.90;0.65;;;;;;;;;;5111136;28;20042;-57
2022/05/08 09:30:54;;;;;;;1.33;0.70;;;;;;;;;;5108709;28;20074;-58
2022/05/08 09:33:27;;;;;;;1.85;1.38;;;;;;;;;;5111218;28;20028;-58
2022/05/08 09:35:52;;;;;;;1.20;0.88;;;;;;;;;;5110789;28;20050;-57
2022/05/08 09:38:18;;;;;;;2.05;1.45;;;;;;;;;;5110759;28;20040;-56
2022/05/08 09:40:45;;;;;;;1.35;0.77;;;;;;;;;;5112712;28;20439;-56
2022/05/08 09:43:26;;;;;;;2.03;1.02;;;;;;;;;;5106442;28;20043;-55
2022/05/08 09:45:58;;;;;;;2.47;1.42;;;;;;;;;;5118275;28;20035;-57
2022/05/08 09:48:33;;;;;;;11.18;1.90;;;;;;;;;;5114470;28;20083;-58
2022/05/08 09:51:00;;;;;;;11.13;1.48;;;;;;;;;;5109802;28;20105;-57
2022/05/08 09:53:26;;;;;;;2.88;1.77;;;;;;;;;;5113510;28;20046;-56
2022/05/08 09:55:52;;;;;;;7.57;0.90;;;;;;;;;;5106898;28;20039;-57
2022/05/08 09:58:18;;;;;;;1.77;1.08;;;;;;;;;;5110466;28;20177;-58
2022/05/08 10:00:45;;;;;;;2.03;1.15;;;;;;;;;;5109052;28;20049;-57
2022/05/08 10:03:10;;;;;;;2.28;1.35;;;;;;;;;;5111369;28;20048;-57
2022/05/08 10:05:37;;;;;;;2.22;1.05;;;;;;;;;;5110073;28;20483;-58
2022/05/08 10:08:03;;;;;;;2.03;1.08;;;;;;;;;;5110759;28;20584;-56
2022/05/08 10:15:56;;;;;;;1.75;0.65;;;;;;;;;;5111635;28;20050;-56
2022/05/08 10:18:21;;;;;;;6.05;1.13;;;;;;;;;;5110058;28;20043;-57
2022/05/08 10:21:03;;;;;;;1.25;0.77;;;;;;;;;;5110432;28;20460;-55
2022/05/08 10:23:36;;;;;;;1.67;0.90;;;;;;;;;;5107915;28;20036;-56
2022/05/08 10:26:20;;;;;;;1.90;0.90;;;;;;;;;;5105763;28;20126;-56
2022/05/08 10:29:03;;;;;;;1.45;0.90;;;;;;;;;;5110471;28;20043;-55
2022/05/08 10:31:45;;;;;;;8.80;1.60;;;;;;;;;;5111041;28;20230;-55
2022/05/08 10:34:11;;;;;;;1.90;0.90;;;;;;;;;;5106466;28;20038;-55
2022/05/08 10:36:37;;;;;;;4.90;0.82;;;;;;;;;;5116222;28;20636;-58
2022/05/08 10:39:21;;;;;;;7.28;1.40;;;;;;;;;;5108521;28;20099;-56
2022/05/08 10:41:47;;;;;;;10.77;9.77;;;;;;;;;;5110660;28;20031;-54
2022/05/08 10:44:31;;;;;;;5.20;2.83;;;;;;;;;;5112311;28;20040;-59
2022/05/08 10:47:16;;;;;;;1.52;1.23;;;;;;;;;;5109714;28;20131;-59
2022/05/08 10:49:42;;;;;;;7.65;1.65;;;;;;;;;;5094699;28;20137;-59
2022/05/08 10:52:08;;;;;;;2.28;1.35;;;;;;;;;;5110080;28;20253;-59
2022/05/08 10:54:33;;;;;;;5.38;1.35;;;;;;;;;;5112461;28;20043;-59
2022/05/08 10:56:58;;;;;;;2.38;0.93;;;;;;;;;;5110685;28;20046;-59
2022/05/08 10:59:43;;;;;;;2.95;1.63;;;;;;;;;;5114597;28;20570;-59
2022/05/08 11:02:08;;;;;;;1.30;0.88;;;;;;;;;;5109944;28;20039;-59
2022/05/08 11:04:49;;;;;;;5.03;1.48;;;;;;;;;;5108637;28;20058;-59
2022/05/08 11:07:20;;;;;;;4.63;1.75;;;;;;;;;;5103161;28;20048;-59
2022/05/08 11:09:46;;;;;;;;;;;;;;;;;;5113424;28;20679;-59
2022/05/08 11:12:11;;;;;;;5.95;2.15;;;;;;;;;;5114383;28;19911;-59
2022/05/08 11:14:36;;;;;;;1.30;0.93;;;;;;;;;;5110448;28;20439;-59
2022/05/08 11:17:12;;;;;;;1.10;0.60;;;;;;;;;;5108718;28;20048;-59
2022/05/08 11:19:53;;;;;;;10.98;1.45;;;;;;;;;;5107405;28;20073;-59
2022/05/08 11:22:18;;;;;;;1.38;0.77;;;;;;;;;;5111021;28;20654;-59
2022/05/08 11:24:49;;;;;;;1.63;0.73;;;;;;;;;;5114909;28;20510;-59
2022/05/08 11:27:14;;;;;;;0.93;0.80;;;;;;;;;;5108303;28;20058;-59
2022/05/08 11:29:48;;;;;;;1.90;1.33;;;;;;;;;;5106886;28;20044;-59
2022/05/08 11:38:01;;;;;;;4.07;2.50;;;;;;;;;;5107941;28;20043;-59
2022/05/08 11:40:27;;;;;;;2.35;2.15;;;;;;;;;;5113384;28;20047;-59
2022/05/08 11:42:52;;;;;;;4.35;1.42;;;;;;;;;;5108865;28;20043;-59
2022/05/08 11:45:17;;;;;;;1.70;1.50;;;;;;;;;;5105387;28;20548;-59
2022/05/08 11:47:49;;;;;;;2.70;1.33;;;;;;;;;;5109514;28;20096;-59
2022/05/08 11:50:14;;;;;;;2.97;1.08;;;;;;;;;;5114017;28;20123;-59
2022/05/08 11:52:40;;;;;;;3.10;1.65;;;;;;;;;;5110679;28;20101;-59
2022/05/08 11:55:05;;;;;;;1.23;1.08;;;;;;;;;;5115237;28;20104;-59
2022/05/08 11:57:39;;;;;;;2.05;1.17;;;;;;;;;;5109736;28;20044;-59
2022/05/08 12:00:10;;;;;;;2.72;1.67;;;;;;;;;;5113089;28;20044;-59
2022/05/08 12:02:38;;;;;;;1.83;1.25;;;;;;;;;;5114406;28;20040;-59
2022/05/08 12:05:04;;;;;;;6.30;1.35;;;;;;;;;;5112907;28;20088;-59
2022/05/08 12:07:39;;;;;;;2.97;1.58;;;;;;;;;;5111179;28;20051;-59
2022/05/08 12:10:05;;;;;;;1.88;1.05;;;;;;;;;;5113320;28;20066;-59
2022/05/08 12:12:32;;;;;;;1.58;1.42;;;;;;;;;;5112834;28;20703;-59
2022/05/08 12:15:06;;;;;;;1.23;1.00;;;;;;;;;;5111002;28;20540;-59
2022/05/08 12:17:44;;;;;;;2.85;1.33;;;;;;;;;;5109915;28;20116;-59
2022/05/08 12:20:12;;;;;;;3.05;1.85;;;;;;;;;;5105239;28;20051;-59
2022/05/08 12:22:38;;;;;;;2.20;1.40;;;;;;;;;;5107916;28;20415;-59
2022/05/08 12:25:04;;;;;;;1.92;1.08;;;;;;;;;;5112105;28;20131;-59
2022/05/08 12:27:30;;;;;;;1.27;0.63;;;;;;;;;;5108923;28;20055;-59
2022/05/08 12:29:55;;;;;;;4.25;1.98;;;;;;;;;;5107371;28;20509;-59
2022/05/08 12:32:22;;;;;;;3.85;1.85;;;;;;;;;;5110238;28;20118;-59
2022/05/08 12:34:48;;;;;;;2.28;1.67;;;;;;;;;;5105693;28;20047;-59
2022/05/08 12:37:14;;;;;;;2.25;1.25;;;;;;;;;;5111139;28;20079;-59
2022/05/08 12:39:39;;;;;;;2.08;1.33;;;;;;;;;;5111771;28;20043;-60
2022/05/08 12:42:05;;;;;;;1.85;1.75;;;;;;;;;;5108989;28;20051;-60
2022/05/08 12:44:31;;;;;;;1.65;1.23;;;;;;;;;;5106863;28;20032;-60
2022/05/08 12:46:57;;;;;;;6.03;1.10;;;;;;;;;;5108976;28;20043;-60
2022/05/08 12:49:22;;;;;;;2.47;1.77;;;;;;;;;;5109902;28;20534;-60
2022/05/08 12:51:48;;;;;;;6.72;2.47;;;;;;;;;;5108598;28;20039;-60
2022/05/08 12:54:13;;;;;;;2.47;1.77;;;;;;;;;;5111391;28;20489;-60
2022/05/08 12:56:40;;;;;;;4.32;2.03;;;;;;;;;;5105265;28;20040;-59
2022/05/08 13:01:49;;;;;;;2.40;2.03;;;;;;;;;;5106796;28;20179;-55
2022/05/08 13:04:14;;;;;;;3.28;1.85;;;;;;;;;;5117218;28;20077;-57
2022/05/08 13:06:41;;;;;;;2.53;1.77;;;;;;;;;;5114551;28;20401;-56
2022/05/08 13:09:06;;;;;;;2.90;1.65;;;;;;;;;;5116295;28;20522;-56
2022/05/08 13:11:32;;;;;;;3.15;1.35;;;;;;;;;;5109602;28;20036;-57
2022/05/08 13:13:57;;;;;;;4.68;1.63;;;;;;;;;;5115045;28;20419;-56
2022/05/08 13:16:23;;;;;;;5.50;1.30;;;;;;;;;;5115436;28;20043;-52
2022/05/08 13:18:49;;;;;;;4.78;2.17;;;;;;;;;;5113888;28;20189;-53
2022/05/08 13:21:14;;;;;;;1.23;0.93;;;;;;;;;;5116216;28;20112;-55
2022/05/08 13:23:39;;;;;;;2.08;1.13;;;;;;;;;;5112233;28;20052;-53
2022/05/08 13:26:05;;;;;;;0.80;0.43;;;;;;;;;;5108954;28;20131;-56
2022/05/08 13:28:32;;;;;;;0.47;0.35;;;;;;;;;;5112164;28;20042;-56
2022/05/08 13:30:58;;;;;;;2.80;1.45;;;;;;;;;;5116032;28;20044;-57
2022/05/08 13:33:24;;;;;;;2.60;1.08;;;;;;;;;;5114007;28;20066;-55
2022/05/08 13:35:50;;;;;;;1.52;1.00;;;;;;;;;;5109583;28;20084;-57
2022/05/08 13:38:15;;;;;;;3.78;0.80;;;;;;;;;;5110877;28;20147;-55
2022/05/08 13:40:41;;;;;;;0.73;0.40;;;;;;;;;;5110510;28;20047;-56
2022/05/08 13:43:06;;;;;;;0.52;0.38;;;;;;;;;;5113925;28;20052;-56
2022/05/08 13:45:32;;;;;;;2.08;1.35;;;;;;;;;;5111957;28;20552;-57
2022/05/08 13:47:57;;;;;;;2.13;1.00;;;;;;;;;;5110355;28;20044;-56
2022/05/08 13:50:22;;;;;;;1.10;0.73;;;;;;;;;;5112461;28;20069;-56
2022/05/08 13:52:48;;;;;;;1.90;1.23;;;;;;;;;;5113527;28;20594;-56
2022/05/08 13:55:15;;;;;;;2.47;1.58;;;;;;;;;;5113980;28;20043;-57
2022/05/08 13:57:40;;;;;;;1.27;0.68;;;;;;;;;;5115577;28;20043;-56
2022/05/08 14:00:08;;;;;;;2.88;1.85;;;;;;;;;;5109258;28;20056;-55
2022/05/08 14:02:33;;;;;;;1.80;1.20;;;;;;;;;;5113786;28;20039;-55
2022/05/08 14:04:58;;;;;;;2.67;1.48;;;;;;;;;;5112529;28;20037;-57
2022/05/08 14:07:24;;;;;;;2.28;1.70;;;;;;;;;;5111240;28;20088;-52
2022/05/08 14:09:49;;;;;;;4.60;1.58;;;;;;;;;;5109493;28;20856;-57
2022/05/08 14:12:15;;;;;;;2.65;1.35;;;;;;;;;;5113859;28;20055;-55
2022/05/08 14:14:41;;;;;;;2.95;1.42;;;;;;;;;;5111694;28;20306;-56
2022/05/08 14:17:06;;;;;;;3.88;1.75;;;;;;;;;;5116256;28;20671;-55
2022/05/08 14:19:32;;;;;;;1.63;1.20;;;;;;;;;;5112285;28;20064;-56
2022/05/08 14:21:59;;;;;;;4.30;1.67;;;;;;;;;;5115807;28;20122;-56
2022/05/08 14:24:24;;;;;;;2.53;1.15;;;;;;;;;;5113963;28;20035;-56
2022/05/08 14:26:49;;;;;;;2.78;0.93;;;;;;;;;;5110360;28;20096;-54
2022/05/08 14:29:14;;;;;;;1.02;0.75;;;;;;;;;;5113106;28;20054;-56
2022/05/08 14:37:08;;;;;;;3.40;2.28;;;;;;;;;;5113343;28;20108;-56
2022/05/08 14:39:34;;;;;;;1.15;0.82;;;;;;;;;;5106201;28;20531;-57
2022/05/08 14:41:59;;;;;;;2.72;1.98;;;;;;;;;;5113847;28;20048;-55
2022/05/08 14:44:25;;;;;;;1.30;1.08;;;;;;;;;;5113866;28;20047;-55
2022/05/08 14:46:50;;;;;;;2.53;1.75;;;;;;;;;;5114429;28;20036;-52
2022/05/08 14:49:15;;;;;;;2.15;1.20;;;;;;;;;;5114465;28;20054;-53
2022/05/08 14:51:40;;;;;;;8.82;2.78;;;;;;;;;;5114232;28;20530;-54
2022/05/08 14:54:06;;;;;;;8.25;1.23;;;;;;;;;;5113460;28;20039;-54
2022/05/08 14:56:32;;;;;;;1.50;1.20;;;;;;;;;;5116945;28;20051;-56
2022/05/08 14:58:57;;;;;;;2.88;1.60;;;;;;;;;;5112833;28;20115;-57
2022/05/08 15:01:23;;;;;;;2.53;1.90;;;;;;;;;;5106451;28;20079;-52
2022/05/08 15:03:48;;;;;;;1.00;0.70;;;;;;;;;;5110214;28;20047;-56
2022/05/08 15:06:13;;;;;;;1.23;1.10;;;;;;;;;;5112928;28;20221;-55
2022/05/08 15:08:42;;;;;;;2.80;1.42;;;;;;;;;;5114453;28;20668;-56
2022/05/08 15:11:07;;;;;;;7.82;1.77;;;;;;;;;;5107124;28;20053;-53
2022/05/08 15:13:32;;;;;;;5.60;2.15;;;;;;;;;;5112050;28;20044;-55